Estación Meteorológica Peña el Pijo (Robertgarden) [ 07/23/17 10:55:22 CEST ]

Fecha Hora Presion(HPa) Temp (°C) Humedad % Rocio (°C) Viento ( m/s) Direccion Lluvia 1Hora(mm) Lluvia 24H(mm) LLuvia Total(mm)
2017-Jul-22 01:02:06 1009.000 17.7 52 7.7         1437.96
2017-Jul-22 02:01:44 1009.100 15.9 57 7.4         1437.96
2017-Jul-22 03:01:18 1008.900 15.2 60 7.5         1437.96
2017-Jul-22 04:01:22 1008.600 14.3 63 7.3         1437.96
2017-Jul-22 05:01:21 1008.500 13.9 66 7.6         1437.96
2017-Jul-22 06:01:23 1008.800 13.3 68 7.5         1437.96
2017-Jul-22 07:01:51 1008.900 12.5 71 7.4         1437.96
2017-Jul-22 08:01:47 1009.100 14.1 74 9.5         1437.96
2017-Jul-22 09:01:52 1009.300 21.1 59 12.8         1437.96
2017-Jul-22 10:01:44 1009.400 26.0 47 13.8         1437.96
2017-Jul-22 11:01:51 1009.600 30.0 39 14.6         1437.96
2017-Jul-22 12:01:53 1009.500 31.8 34 13.9         1437.96
2017-Jul-22 13:01:45 1009.600 34.3 31 14.7         1437.96
2017-Jul-22 14:01:53 1009.500 33.9 29 13.3         1437.96
2017-Jul-22 15:01:53 1009.000 35.6 25 12.3         1437.96
2017-Jul-22 16:01:42 1009.000 38.4 17 8.5         1437.96
2017-Jul-22 17:01:43 1009.200 33.8 30 13.8         1437.96
2017-Jul-22 18:01:57 1009.300 34.4 31 14.7         1437.96
2017-Jul-22 19:01:42 1009.400 32.1 33 13.7         1437.96
2017-Jul-22 20:01:43 1009.700 31.9 35 14.4         1437.96
2017-Jul-22 21:01:33 1010.100 28.0 42 13.9         1437.96
2017-Jul-22 22:01:49 1010.900 24.9 51 14.1         1437.96
2017-Jul-22 23:01:34 1012.100 22.8 57 13.8         1437.96

Temperatura Máxima:38°    Temperatura Mínima:12°
Presión Máxima:1012.100 Hpa    Presión Mínima:1008.500 Hpa


Volver